createdAt,value
2017-08-28T00:00:24.850Z,0
2017-08-28T00:01:18.819Z,0
2017-08-28T00:02:18.770Z,0
2017-08-28T00:03:13.935Z,0
2017-08-28T00:04:14.075Z,0
2017-08-28T00:05:07.940Z,0
2017-08-28T00:06:08.983Z,0
2017-08-28T00:07:10.037Z,0
2017-08-28T00:08:10.019Z,0
2017-08-28T00:09:10.020Z,0
2017-08-28T00:10:05.037Z,0
2017-08-28T00:10:59.207Z,0
2017-08-28T00:11:59.132Z,0
2017-08-28T00:12:54.200Z,0
2017-08-28T00:13:49.219Z,0
2017-08-28T00:14:50.417Z,0
2017-08-28T00:15:50.274Z,0
2017-08-28T00:16:50.455Z,0
2017-08-28T00:17:38.436Z,0
2017-08-28T00:18:32.377Z,0
2017-08-28T00:19:26.527Z,0
2017-08-28T00:20:20.582Z,0
2017-08-28T00:21:14.618Z,0
2017-08-28T00:22:08.602Z,0
2017-08-28T00:23:03.638Z,0
2017-08-28T00:23:52.717Z,0
2017-08-28T00:24:46.787Z,0
2017-08-28T00:25:40.692Z,0
2017-08-28T00:26:35.777Z,0
2017-08-28T00:27:23.836Z,0
2017-08-28T00:28:18.942Z,0
2017-08-28T00:29:12.941Z,0
2017-08-28T00:30:14.043Z,0
2017-08-28T00:31:14.008Z,0
2017-08-28T00:32:14.111Z,0
2017-08-28T00:33:07.992Z,0
2017-08-28T00:34:08.180Z,0
2017-08-28T00:35:03.170Z,0
2017-08-28T00:35:58.188Z,0
2017-08-28T00:36:59.218Z,0
2017-08-28T00:37:59.285Z,0
2017-08-28T00:38:54.359Z,0
2017-08-28T00:39:54.339Z,0
2017-08-28T00:40:48.359Z,0
2017-08-28T00:41:49.375Z,0
2017-08-28T00:42:49.461Z,0
2017-08-28T00:43:44.453Z,0
2017-08-28T00:44:44.439Z,0
2017-08-28T00:45:38.466Z,0
2017-08-28T00:46:38.644Z,0
2017-08-28T00:47:33.591Z,0
2017-08-28T00:48:28.680Z,0
2017-08-28T00:49:28.644Z,0
2017-08-28T00:50:23.660Z,0
2017-08-28T00:51:18.806Z,0
2017-08-28T00:52:24.712Z,0
2017-08-28T00:53:18.740Z,0
2017-08-28T00:54:18.749Z,0
2017-08-28T00:55:13.889Z,0
2017-08-28T00:56:13.892Z,0
2017-08-28T00:57:07.900Z,0
2017-08-28T00:58:07.925Z,0
2017-08-28T00:59:02.952Z,0
2017-08-28T00:59:58.093Z,0
2017-08-28T01:00:59.145Z,0
2017-08-28T01:02:00.107Z,0
2017-08-28T01:02:55.160Z,0
2017-08-28T01:03:49.241Z,0
2017-08-28T01:04:49.151Z,0
2017-08-28T01:05:44.242Z,0
2017-08-28T01:06:44.257Z,0
2017-08-28T01:07:44.296Z,0
2017-08-28T01:08:50.320Z,0
2017-08-28T01:09:45.261Z,0
2017-08-28T01:10:45.415Z,0
2017-08-28T01:11:40.352Z,0
2017-08-28T01:12:40.435Z,0
2017-08-28T01:13:40.529Z,0
2017-08-28T01:14:46.494Z,0
2017-08-28T01:15:46.447Z,0
2017-08-28T01:16:47.533Z,0
2017-08-28T01:17:47.608Z,0
2017-08-28T01:18:47.538Z,0
2017-08-28T01:19:41.628Z,0
2017-08-28T01:20:41.821Z,0
2017-08-28T01:21:36.734Z,0
2017-08-28T01:22:36.775Z,0
2017-08-28T01:23:30.847Z,0
2017-08-28T01:24:30.756Z,0
2017-08-28T01:25:25.921Z,0
2017-08-28T01:26:20.934Z,0
2017-08-28T01:27:20.878Z,0
2017-08-28T01:28:16.002Z,0
2017-08-28T01:29:11.100Z,0
2017-08-28T01:30:12.033Z,0
2017-08-28T01:31:12.014Z,0
2017-08-28T01:32:12.084Z,0
2017-08-28T01:33:07.042Z,0
2017-08-28T01:34:01.148Z,0
2017-08-28T01:35:01.113Z,0
2017-08-28T01:35:56.172Z,0
2017-08-28T01:36:56.289Z,0
2017-08-28T01:37:50.310Z,0
2017-08-28T01:38:50.245Z,0
2017-08-28T01:39:45.363Z,0
2017-08-28T01:40:40.474Z,0
2017-08-28T01:41:40.515Z,0
2017-08-28T01:42:35.563Z,0
2017-08-28T01:43:30.472Z,0
2017-08-28T01:44:31.665Z,0
2017-08-28T01:45:31.549Z,0
2017-08-28T01:46:31.705Z,0
2017-08-28T01:47:26.660Z,0
2017-08-28T01:48:20.711Z,0
2017-08-28T01:49:20.828Z,0
2017-08-28T01:50:15.574Z,0
2017-08-28T01:51:15.902Z,0
2017-08-28T01:52:09.885Z,0
2017-08-28T01:53:09.909Z,0
2017-08-28T01:54:04.935Z,0
2017-08-28T01:54:59.899Z,0
2017-08-28T01:56:00.010Z,0
2017-08-28T01:56:55.013Z,0
2017-08-28T01:57:50.104Z,0
2017-08-28T01:58:51.146Z,0
2017-08-28T01:59:51.119Z,0
2017-08-28T02:00:51.177Z,0
2017-08-28T02:01:46.228Z,0
2017-08-28T02:02:40.329Z,0
2017-08-28T02:03:40.403Z,0
2017-08-28T02:04:35.385Z,0
2017-08-28T02:05:35.395Z,0
2017-08-28T02:06:29.450Z,0
2017-08-28T02:07:29.403Z,0
2017-08-28T02:08:24.524Z,0
2017-08-28T02:09:19.463Z,0
2017-08-28T02:10:19.491Z,0
2017-08-28T02:11:14.588Z,0
2017-08-28T02:12:09.545Z,0
2017-08-28T02:13:10.524Z,0
2017-08-28T02:14:10.636Z,0
2017-08-28T02:15:10.721Z,0
2017-08-28T02:16:05.777Z,0
2017-08-28T02:16:59.745Z,0
2017-08-28T02:17:59.854Z,0
2017-08-28T02:18:54.821Z,0
2017-08-28T02:19:54.798Z,0
2017-08-28T02:20:48.959Z,0
2017-08-28T02:21:48.937Z,0
2017-08-28T02:22:44.004Z,0
2017-08-28T02:23:38.982Z,0
2017-08-28T02:24:39.038Z,0
2017-08-28T02:25:34.049Z,0
2017-08-28T02:26:29.230Z,0
2017-08-28T02:27:30.214Z,0
2017-08-28T02:28:30.181Z,0
2017-08-28T02:29:30.227Z,0
2017-08-28T02:30:25.322Z,0
2017-08-28T02:31:19.329Z,0
2017-08-28T02:32:19.350Z,0
2017-08-28T02:33:14.344Z,0
2017-08-28T02:34:14.453Z,0
2017-08-28T02:35:08.447Z,0
2017-08-28T02:36:08.433Z,0
2017-08-28T02:37:03.456Z,0
2017-08-28T02:37:58.529Z,0
2017-08-28T02:38:58.554Z,0
2017-08-28T02:39:53.593Z,0
2017-08-28T02:40:48.658Z,0
2017-08-28T02:41:49.719Z,0
2017-08-28T02:42:50.653Z,0
2017-08-28T02:43:50.750Z,0
2017-08-28T02:44:51.809Z,0
2017-08-28T02:45:45.780Z,0
2017-08-28T02:46:46.922Z,0
2017-08-28T02:47:46.813Z,0
2017-08-28T02:48:41.888Z,0
2017-08-28T02:49:42.205Z,0
2017-08-28T02:50:36.061Z,0
2017-08-28T02:51:36.044Z,0
2017-08-28T02:52:31.005Z,0
2017-08-28T02:53:31.094Z,0
2017-08-28T02:54:31.094Z,0
2017-08-28T02:55:31.164Z,0
2017-08-28T02:56:25.108Z,0
2017-08-28T02:57:25.120Z,0
2017-08-28T02:58:20.282Z,0
2017-08-28T02:59:15.314Z,0
2017-08-28T03:00:15.284Z,0
2017-08-28T03:01:10.498Z,0
2017-08-28T03:02:05.466Z,0
2017-08-28T03:03:11.415Z,0
2017-08-28T03:04:05.467Z,0
2017-08-28T03:05:05.578Z,0
2017-08-28T03:06:00.385Z,0
2017-08-28T03:07:00.576Z,0
2017-08-28T03:07:54.615Z,0
2017-08-28T03:08:54.598Z,0
2017-08-28T03:09:49.589Z,0
2017-08-28T03:10:44.700Z,0
2017-08-28T03:11:44.718Z,0
2017-08-28T03:12:39.716Z,0
2017-08-28T03:13:34.779Z,0
2017-08-28T03:14:34.843Z,0
2017-08-28T03:15:29.773Z,0
2017-08-28T03:16:24.868Z,0
2017-08-28T03:17:25.947Z,0
2017-08-28T03:18:26.027Z,0
2017-08-28T03:19:26.062Z,0
2017-08-28T03:20:21.017Z,0
2017-08-28T03:21:15.051Z,0
2017-08-28T03:22:15.015Z,0
2017-08-28T03:23:10.122Z,0
2017-08-28T03:24:10.147Z,0
2017-08-28T03:25:04.179Z,0
2017-08-28T03:26:04.230Z,0
2017-08-28T03:26:59.209Z,0
2017-08-28T03:27:54.280Z,0
2017-08-28T03:28:54.258Z,0
2017-08-28T03:29:49.345Z,0
2017-08-28T03:30:44.338Z,0
2017-08-28T03:31:45.261Z,0
2017-08-28T03:32:45.382Z,0
2017-08-28T03:33:45.381Z,0
2017-08-28T03:34:40.455Z,0
2017-08-28T03:35:34.423Z,0
2017-08-28T03:36:34.477Z,0
2017-08-28T03:37:29.557Z,0
2017-08-28T03:38:29.757Z,0
2017-08-28T03:39:23.622Z,0
2017-08-28T03:40:23.604Z,0
2017-08-28T03:41:18.814Z,0
2017-08-28T03:42:13.650Z,0
2017-08-28T03:43:13.744Z,0
2017-08-28T03:44:08.864Z,0
2017-08-28T03:45:03.810Z,0
2017-08-28T03:46:04.881Z,0
2017-08-28T03:47:04.982Z,0
2017-08-28T03:48:05.048Z,0
2017-08-28T03:49:00.002Z,0
2017-08-28T03:50:00.100Z,0
2017-08-28T03:50:59.529Z,0
2017-08-28T03:51:53.645Z,0
2017-08-28T03:52:54.211Z,0
2017-08-28T03:53:48.717Z,0
2017-08-28T03:54:48.648Z,0
2017-08-28T03:55:48.772Z,0
2017-08-28T03:56:49.064Z,4
2017-08-28T03:57:43.323Z,4
2017-08-28T03:58:42.838Z,4
2017-08-28T03:59:38.375Z,0
2017-08-28T04:00:38.377Z,4
2017-08-28T04:01:32.292Z,4
2017-08-28T04:02:32.146Z,8
2017-08-28T04:03:27.632Z,4
2017-08-28T04:04:22.041Z,8
2017-08-28T04:05:22.441Z,8
2017-08-28T04:06:17.377Z,8
2017-08-28T04:07:12.588Z,8
2017-08-28T04:08:13.687Z,12
2017-08-28T04:09:13.382Z,12
2017-08-28T04:10:13.655Z,16
2017-08-28T04:11:08.728Z,16
2017-08-28T04:12:08.867Z,24
2017-08-28T04:13:08.786Z,24
2017-08-28T04:14:03.026Z,28
2017-08-28T04:15:02.857Z,32
2017-08-28T04:15:58.050Z,40
2017-08-28T04:16:53.076Z,44
2017-08-28T04:17:53.111Z,52
2017-08-28T04:18:48.104Z,60
2017-08-28T04:19:43.040Z,68
2017-08-28T04:20:43.187Z,80
2017-08-28T04:21:38.224Z,92
2017-08-28T04:22:33.233Z,100
2017-08-28T04:23:33.178Z,116
2017-08-28T04:24:28.194Z,128
2017-08-28T04:25:23.282Z,144
2017-08-28T04:26:17.308Z,160
2017-08-28T04:27:17.403Z,176
2017-08-28T04:28:12.362Z,196
2017-08-28T04:29:12.350Z,220
2017-08-28T04:30:12.417Z,244
2017-08-28T04:31:12.567Z,272
2017-08-28T04:32:06.562Z,300
2017-08-28T04:33:06.479Z,336
2017-08-28T04:34:01.647Z,368
2017-08-28T04:34:56.677Z,404
2017-08-28T04:35:50.736Z,436
2017-08-28T04:36:50.752Z,480
2017-08-28T04:37:46.033Z,516
2017-08-28T04:38:40.754Z,556
2017-08-28T04:39:40.858Z,604
2017-08-28T04:40:35.870Z,648
2017-08-28T04:41:35.943Z,700
2017-08-28T04:42:36.974Z,760
2017-08-28T04:43:37.953Z,824
2017-08-28T04:44:32.016Z,880
2017-08-28T04:45:32.041Z,952
2017-08-28T04:46:27.003Z,1024
2017-08-28T04:47:27.053Z,1104
2017-08-28T04:48:28.108Z,1188
2017-08-28T04:49:29.145Z,1280
2017-08-28T04:50:30.281Z,1372
2017-08-28T04:51:24.178Z,1460
2017-08-28T04:52:24.309Z,1560
2017-08-28T04:53:19.311Z,1656
2017-08-28T04:54:19.316Z,1752
2017-08-28T04:55:20.365Z,1856
2017-08-28T04:56:21.501Z,1964
2017-08-28T04:57:22.429Z,2076
2017-08-28T04:58:16.485Z,2168
2017-08-28T04:59:16.565Z,2272
2017-08-28T05:00:11.583Z,2364
2017-08-28T05:01:06.521Z,2460
2017-08-28T05:02:06.617Z,2564
2017-08-28T05:03:06.718Z,2676
2017-08-28T05:03:55.626Z,2764
2017-08-28T05:04:44.650Z,2852
2017-08-28T05:05:33.707Z,2948
2017-08-28T05:06:21.851Z,3036
2017-08-28T05:07:15.845Z,3136
2017-08-28T05:08:03.930Z,3224
2017-08-28T05:08:52.999Z,3316
2017-08-28T05:09:40.963Z,3404
2017-08-28T05:10:30.025Z,3496
2017-08-28T05:11:18.018Z,3588
2017-08-28T05:12:12.116Z,3684
2017-08-28T05:13:12.018Z,3784
2017-08-28T05:14:12.184Z,3876
2017-08-28T05:15:12.121Z,3980
2017-08-28T05:16:12.296Z,4080
2017-08-28T05:17:12.240Z,4180
2017-08-28T05:18:12.264Z,4280
2017-08-28T05:19:07.369Z,4368
2017-08-28T05:20:02.419Z,4448
2017-08-28T05:20:51.479Z,4528
2017-08-28T05:21:39.454Z,4604
2017-08-28T05:22:28.442Z,4688
2017-08-28T05:23:16.524Z,4768
2017-08-28T05:24:05.474Z,4844
2017-08-28T05:24:54.554Z,4928
2017-08-28T05:25:43.677Z,5020
2017-08-28T05:26:32.692Z,5104
2017-08-28T05:27:32.854Z,5196
2017-08-28T05:28:32.765Z,5292
2017-08-28T05:29:32.929Z,5392
2017-08-28T05:30:26.833Z,5500
2017-08-28T05:31:26.989Z,5732
2017-08-28T05:32:16.071Z,6024
2017-08-28T05:33:04.971Z,6516
2017-08-28T05:33:53.055Z,6872
2017-08-28T05:34:53.086Z,7108
2017-08-28T05:35:48.033Z,7252
2017-08-28T05:36:36.145Z,7284
2017-08-28T05:37:24.287Z,7312
2017-08-28T05:38:18.207Z,7344
2017-08-28T05:39:12.256Z,7404
2017-08-28T05:40:07.393Z,7592
2017-08-28T05:41:02.283Z,7752
2017-08-28T05:41:50.479Z,7908
2017-08-28T05:42:45.475Z,8072
2017-08-28T05:43:45.112Z,8096
2017-08-28T05:44:34.338Z,8116
2017-08-28T05:45:22.393Z,8128
2017-08-28T05:46:11.436Z,8228
2017-08-28T05:46:59.585Z,8368
2017-08-28T05:47:48.750Z,8584
2017-08-28T05:48:42.677Z,8900
2017-08-28T05:49:31.677Z,9164
2017-08-28T05:50:25.697Z,9428
2017-08-28T05:51:13.472Z,9616
2017-08-28T05:52:02.942Z,9804
2017-08-28T05:52:56.962Z,9976
2017-08-28T05:53:57.949Z,9964
2017-08-28T05:54:53.070Z,9956
2017-08-28T05:55:47.121Z,10080
2017-08-28T05:56:35.080Z,10256
2017-08-28T05:57:22.991Z,10508
2017-08-28T05:58:22.926Z,10896
2017-08-28T05:59:18.205Z,11132
2017-08-28T06:00:18.358Z,11088
2017-08-28T06:01:12.368Z,11092
2017-08-28T06:02:12.392Z,11448
2017-08-28T06:03:06.850Z,11676
2017-08-28T06:03:54.437Z,11692
2017-08-28T06:04:42.426Z,11832
2017-08-28T06:05:43.556Z,12004
2017-08-28T06:06:37.243Z,12160
2017-08-28T06:07:31.558Z,12288
2017-08-28T06:08:25.551Z,12564
2017-08-28T06:09:13.720Z,12800
2017-08-28T06:10:07.730Z,12980
2017-08-28T06:11:02.734Z,13060
2017-08-28T06:11:56.923Z,13396
2017-08-28T06:12:57.839Z,13620
2017-08-28T06:13:51.923Z,13788
2017-08-28T06:14:46.932Z,14004
2017-08-28T06:15:47.106Z,14124
2017-08-28T06:16:42.102Z,14592
2017-08-28T06:17:36.086Z,14816
2017-08-28T06:18:25.130Z,14880
2017-08-28T06:19:20.332Z,15328
2017-08-28T06:20:20.278Z,15648
2017-08-28T06:21:14.245Z,15776
2017-08-28T06:22:09.366Z,16032
2017-08-28T06:22:58.371Z,16288
2017-08-28T06:23:58.464Z,17056
2017-08-28T06:24:53.530Z,17984
2017-08-28T06:25:47.525Z,18784
2017-08-28T06:26:41.521Z,19552
2017-08-28T06:27:36.652Z,20192
2017-08-28T06:28:30.650Z,20544
2017-08-28T06:29:24.825Z,21056
2017-08-28T06:30:19.772Z,21920
2017-08-28T06:31:08.853Z,23520
2017-08-28T06:32:03.871Z,26784
2017-08-28T06:32:58.892Z,31264
2017-08-28T06:33:47.962Z,33184
2017-08-28T06:34:36.129Z,35808
2017-08-28T06:35:24.146Z,38880
2017-08-28T06:36:19.078Z,42176
2017-08-28T06:37:08.086Z,43584
2017-08-28T06:38:02.222Z,41312
2017-08-28T06:38:56.175Z,45568
2017-08-28T06:39:44.274Z,68384
2017-08-28T06:40:38.525Z,71776
2017-08-28T06:41:32.455Z,67584
2017-08-28T06:42:33.464Z,57664
2017-08-28T06:43:34.574Z,38048
2017-08-28T06:44:28.448Z,38272
2017-08-28T06:45:17.570Z,29632
2017-08-28T06:46:12.964Z,28544
2017-08-28T06:47:07.680Z,32640
2017-08-28T06:48:01.782Z,33280
2017-08-28T06:48:55.793Z,32512
2017-08-28T06:49:43.855Z,31008
2017-08-28T06:50:37.944Z,29600
2017-08-28T06:51:25.997Z,28672
2017-08-28T06:52:27.049Z,28128
2017-08-28T06:53:22.044Z,28704
2017-08-28T06:54:10.135Z,30016
2017-08-28T06:54:59.165Z,32288
2017-08-28T06:55:48.123Z,34144
2017-08-28T06:56:37.414Z,35168
2017-08-28T06:57:32.330Z,35232
2017-08-28T06:58:27.406Z,34688
2017-08-28T06:59:28.443Z,33376
2017-08-28T07:00:22.587Z,33024
2017-08-28T07:01:17.460Z,33344
2017-08-28T07:02:05.672Z,34240
2017-08-28T07:02:59.577Z,35456
2017-08-28T07:03:59.672Z,36384
2017-08-28T07:04:47.785Z,36704
2017-08-28T07:05:36.811Z,36640
2017-08-28T07:06:25.950Z,36384
2017-08-28T07:07:25.905Z,36384
2017-08-28T07:08:20.913Z,36672
2017-08-28T07:09:27.015Z,37504
2017-08-28T07:10:21.084Z,39328
2017-08-28T07:11:16.177Z,40448
2017-08-28T07:12:05.132Z,41216
2017-08-28T07:12:54.279Z,41344
2017-08-28T07:13:48.207Z,39520
2017-08-28T07:14:43.319Z,36096
2017-08-28T07:15:37.318Z,33600
2017-08-28T07:16:25.465Z,31744
2017-08-28T07:17:25.440Z,32288
2017-08-28T07:18:19.564Z,35424
2017-08-28T07:19:14.441Z,39296
2017-08-28T07:20:08.645Z,42240
2017-08-28T07:20:56.660Z,42880
2017-08-28T07:21:51.829Z,41120
2017-08-28T07:22:40.809Z,39104
2017-08-28T07:23:34.891Z,37280
2017-08-28T07:24:35.922Z,36576
2017-08-28T07:25:30.004Z,37056
2017-08-28T07:26:19.027Z,38464
2017-08-28T07:27:08.021Z,40320
2017-08-28T07:28:03.233Z,42176
2017-08-28T07:28:52.263Z,42848
2017-08-28T07:29:53.233Z,42784
2017-08-28T07:30:47.358Z,42752
2017-08-28T07:31:36.337Z,43104
2017-08-28T07:32:25.473Z,43648
2017-08-28T07:33:19.491Z,44416
2017-08-28T07:34:08.639Z,45952
2017-08-28T07:35:03.675Z,47872
2017-08-28T07:35:57.756Z,49312
2017-08-28T07:36:57.699Z,48864
2017-08-28T07:37:46.797Z,46304
2017-08-28T07:38:41.833Z,43488
2017-08-28T07:39:35.898Z,42304
2017-08-28T07:40:24.943Z,42752
2017-08-28T07:41:24.904Z,45088
2017-08-28T07:42:19.018Z,48096
2017-08-28T07:43:19.078Z,51456
2017-08-28T07:44:13.048Z,52416
2017-08-28T07:45:08.218Z,52128
2017-08-28T07:46:08.187Z,49536
2017-08-28T07:46:57.315Z,46912
2017-08-28T07:47:46.479Z,44960
2017-08-28T07:48:40.459Z,44224
2017-08-28T07:49:40.450Z,45504
2017-08-28T07:50:34.622Z,48544
2017-08-28T07:51:29.692Z,52192
2017-08-28T07:52:23.642Z,55136
2017-08-28T07:53:18.826Z,56992
2017-08-28T07:54:07.763Z,57568
2017-08-28T07:54:56.876Z,57312
2017-08-28T07:55:50.982Z,55776
2017-08-28T07:56:38.897Z,53760
2017-08-28T07:57:27.929Z,50944
2017-08-28T07:58:29.072Z,48032
2017-08-28T07:59:23.035Z,46112
2017-08-28T08:00:12.283Z,45088
2017-08-28T08:01:01.403Z,46144
2017-08-28T08:01:55.290Z,48224
2017-08-28T08:02:49.441Z,50624
2017-08-28T08:03:43.386Z,52480
2017-08-28T08:04:44.474Z,52928
2017-08-28T08:05:32.550Z,52064
2017-08-28T08:06:26.589Z,51808
2017-08-28T08:07:15.639Z,51776
2017-08-28T08:08:04.670Z,52064
2017-08-28T08:08:58.783Z,52576
2017-08-28T08:09:46.808Z,53216
2017-08-28T08:10:40.885Z,53152
2017-08-28T08:11:28.938Z,52384
2017-08-28T08:12:17.982Z,51744
2017-08-28T08:13:18.098Z,50720
2017-08-28T08:14:07.135Z,49696
2017-08-28T08:14:56.209Z,49280
2017-08-28T08:15:50.257Z,48992
2017-08-28T08:16:38.332Z,49472
2017-08-28T08:17:32.341Z,51296
2017-08-28T08:18:32.445Z,52960
2017-08-28T08:19:20.393Z,54464
2017-08-28T08:20:09.448Z,55584
2017-08-28T08:20:58.545Z,57632
2017-08-28T08:21:58.656Z,59840
2017-08-28T08:22:52.635Z,59968
2017-08-28T08:23:46.825Z,59136
2017-08-28T08:24:34.872Z,58432
2017-08-28T08:25:29.870Z,57696
2017-08-28T08:26:18.988Z,55808
2017-08-28T08:27:14.150Z,54368
2017-08-28T08:28:15.113Z,54048
2017-08-28T08:29:15.155Z,54912
2017-08-28T08:30:03.133Z,56896
2017-08-28T08:31:03.302Z,57728
2017-08-28T08:31:58.293Z,55904
2017-08-28T08:32:52.554Z,55200
2017-08-28T08:33:46.459Z,53952
2017-08-28T08:34:46.460Z,52160
2017-08-28T08:35:40.585Z,54464
2017-08-28T08:36:29.660Z,55168
2017-08-28T08:37:30.606Z,60480
2017-08-28T08:38:25.698Z,61216
2017-08-28T08:39:20.831Z,58208
2017-08-28T08:40:14.847Z,57504
2017-08-28T08:41:03.942Z,55264
2017-08-28T08:42:04.980Z,52896
2017-08-28T08:43:04.969Z,49600
2017-08-28T08:43:54.086Z,49440
2017-08-28T08:44:43.112Z,49152
2017-08-28T08:45:32.262Z,49696
2017-08-28T08:46:26.264Z,53248
2017-08-28T08:47:21.319Z,56160
2017-08-28T08:48:16.350Z,54912
2017-08-28T08:49:10.459Z,62144
2017-08-28T08:50:05.510Z,66816
2017-08-28T08:51:00.532Z,63552
2017-08-28T08:51:54.557Z,60576
2017-08-28T08:52:48.796Z,62112
2017-08-28T08:53:48.717Z,60064
2017-08-28T08:54:37.839Z,58048
2017-08-28T08:55:25.835Z,53664
2017-08-28T08:56:13.940Z,57632
2017-08-28T08:57:02.063Z,60512
2017-08-28T08:57:50.155Z,63392
2017-08-28T08:58:44.145Z,66976
2017-08-28T08:59:38.290Z,69920
2017-08-28T09:00:32.167Z,71328
2017-08-28T09:01:26.344Z,72704
2017-08-28T09:02:26.258Z,72768
2017-08-28T09:03:15.379Z,72128
2017-08-28T09:04:09.458Z,71968
2017-08-28T09:04:58.539Z,69664
2017-08-28T09:05:58.452Z,64480
2017-08-28T09:06:52.520Z,60160
2017-08-28T09:07:47.713Z,57216
2017-08-28T09:08:36.731Z,57376
2017-08-28T09:09:30.783Z,59424
2017-08-28T09:10:18.794Z,61504
2017-08-28T09:11:12.977Z,64160
2017-08-28T09:12:07.085Z,65056
2017-08-28T09:12:56.095Z,65056
2017-08-28T09:13:51.219Z,65632
2017-08-28T09:14:45.204Z,66496
2017-08-28T09:15:39.396Z,68256
2017-08-28T09:16:28.362Z,68672
2017-08-28T09:17:23.430Z,67360
2017-08-28T09:18:18.518Z,65376
2017-08-28T09:19:18.577Z,62336
2017-08-28T09:20:18.577Z,61792
2017-08-28T09:21:12.690Z,63744
2017-08-28T09:22:12.679Z,66080
2017-08-28T09:23:07.861Z,68128
2017-08-28T09:24:01.883Z,70432
2017-08-28T09:24:50.971Z,71776
2017-08-28T09:25:45.942Z,71904
2017-08-28T09:26:35.058Z,69664
2017-08-28T09:27:24.152Z,65440
2017-08-28T09:28:18.175Z,60736
2017-08-28T09:29:12.308Z,59456
2017-08-28T09:30:07.299Z,59232
2017-08-28T09:30:56.380Z,60672
2017-08-28T09:31:56.387Z,61216
2017-08-28T09:32:44.453Z,62720
2017-08-28T09:33:32.564Z,61024
2017-08-28T09:34:27.691Z,62080
2017-08-28T09:35:16.590Z,60704
2017-08-28T09:36:05.696Z,59008
2017-08-28T09:37:00.848Z,58624
2017-08-28T09:37:48.987Z,61632
2017-08-28T09:38:48.867Z,66624
2017-08-28T09:39:36.951Z,69984
2017-08-28T09:40:26.074Z,71488
2017-08-28T09:41:21.107Z,72032
2017-08-28T09:42:16.221Z,71744
2017-08-28T09:43:11.303Z,71648
2017-08-28T09:44:05.254Z,69888
2017-08-28T09:45:00.347Z,66784
2017-08-28T09:45:55.463Z,64160
2017-08-28T09:46:49.473Z,64192
2017-08-28T09:47:49.655Z,63904
2017-08-28T09:48:49.540Z,69888
2017-08-28T09:49:43.819Z,74656
2017-08-28T09:50:38.743Z,76544
2017-08-28T09:51:27.780Z,76480
2017-08-28T09:52:21.751Z,73760
2017-08-28T09:53:21.933Z,69024
2017-08-28T09:54:17.009Z,65152
2017-08-28T09:55:11.108Z,64288
2017-08-28T09:56:05.147Z,65248
2017-08-28T09:57:00.170Z,65728
2017-08-28T09:57:54.373Z,63808
2017-08-28T09:58:48.323Z,59616
2017-08-28T09:59:36.373Z,54528
2017-08-28T10:00:30.583Z,51744
2017-08-28T10:01:24.648Z,56512
2017-08-28T10:02:13.623Z,63584
2017-08-28T10:03:02.599Z,72256
2017-08-28T10:03:57.780Z,77920
2017-08-28T10:04:52.817Z,81472
2017-08-28T10:05:41.890Z,78144
2017-08-28T10:06:29.950Z,77952
2017-08-28T10:07:23.981Z,76192
2017-08-28T10:08:18.124Z,77504
2017-08-28T10:09:07.067Z,81248
2017-08-28T10:09:55.301Z,83456
2017-08-28T10:10:49.542Z,83968
2017-08-28T10:11:44.387Z,81792
2017-08-28T10:12:33.428Z,77792
2017-08-28T10:13:27.484Z,73120
2017-08-28T10:14:16.530Z,70496
2017-08-28T10:15:10.579Z,71040
2017-08-28T10:15:59.903Z,71936
2017-08-28T10:16:54.793Z,73728
2017-08-28T10:17:55.024Z,73792
2017-08-28T10:18:49.793Z,73344
2017-08-28T10:19:44.039Z,72000
2017-08-28T10:20:38.171Z,71072
2017-08-28T10:21:27.141Z,71168
2017-08-28T10:22:22.194Z,72544
2017-08-28T10:23:16.192Z,73344
2017-08-28T10:24:10.358Z,73344
2017-08-28T10:24:59.456Z,72064
2017-08-28T10:25:48.516Z,71648
2017-08-28T10:26:43.560Z,71456
2017-08-28T10:27:32.682Z,71008
2017-08-28T10:28:32.766Z,69888
2017-08-28T10:29:32.871Z,68224
2017-08-28T10:30:32.987Z,67648
2017-08-28T10:31:21.960Z,67680
2017-08-28T10:32:16.078Z,68000
2017-08-28T10:33:10.207Z,66848
2017-08-28T10:34:05.269Z,65120
2017-08-28T10:35:00.270Z,62624
2017-08-28T10:35:55.389Z,61312
2017-08-28T10:36:50.525Z,62560
2017-08-28T10:37:50.967Z,63712
2017-08-28T10:38:51.594Z,65024
2017-08-28T10:39:40.698Z,65536
2017-08-28T10:40:34.680Z,66976
2017-08-28T10:41:29.816Z,67648
2017-08-28T10:42:18.949Z,70560
2017-08-28T10:43:14.046Z,65664
2017-08-28T10:44:03.064Z,74048
2017-08-28T10:45:03.152Z,73920
2017-08-28T10:45:52.169Z,73120
2017-08-28T10:46:52.222Z,73440
2017-08-28T10:47:52.403Z,72480
2017-08-28T10:48:41.390Z,72576
2017-08-28T10:49:36.521Z,73440
2017-08-28T10:50:30.482Z,74656
2017-08-28T10:51:30.631Z,75936
2017-08-28T10:52:25.743Z,77248
2017-08-28T10:53:14.799Z,76512
2017-08-28T10:54:08.945Z,74304
2017-08-28T10:55:04.043Z,73152
2017-08-28T10:56:04.154Z,69440
2017-08-28T10:57:05.194Z,69760
2017-08-28T10:58:00.164Z,71392
2017-08-28T10:58:55.314Z,75104
2017-08-28T10:59:55.476Z,77344
2017-08-28T11:00:43.442Z,72256
2017-08-28T11:01:32.547Z,77952
2017-08-28T11:02:26.634Z,73056
2017-08-28T11:03:26.669Z,72000
2017-08-28T11:04:20.829Z,71296
2017-08-28T11:05:09.926Z,72448
2017-08-28T11:06:09.921Z,72608
2017-08-28T11:07:05.058Z,72416
2017-08-28T11:08:00.181Z,71680
2017-08-28T11:09:00.270Z,69920
2017-08-28T11:10:00.295Z,68544
2017-08-28T11:10:48.387Z,70496
2017-08-28T11:11:54.321Z,70304
2017-08-28T11:12:43.471Z,68736
2017-08-28T11:13:37.649Z,64928
2017-08-28T11:14:38.784Z,62688
2017-08-28T11:15:33.830Z,64448
2017-08-28T11:16:28.930Z,64800
2017-08-28T11:17:23.068Z,64320
2017-08-28T11:18:18.064Z,63072
2017-08-28T11:19:12.164Z,60256
2017-08-28T11:20:07.257Z,59136
2017-08-28T11:21:02.418Z,58720
2017-08-28T11:21:51.317Z,60512
2017-08-28T11:22:52.527Z,60864
2017-08-28T11:23:46.605Z,64000
2017-08-28T11:24:46.603Z,72544
2017-08-28T11:25:41.676Z,71776
2017-08-28T11:26:35.769Z,70432
2017-08-28T11:27:24.910Z,69952
2017-08-28T11:28:13.838Z,69824
2017-08-28T11:29:13.965Z,70688
2017-08-28T11:30:08.066Z,73248
2017-08-28T11:31:02.148Z,76448
2017-08-28T11:31:56.225Z,77984
2017-08-28T11:32:50.428Z,77824
2017-08-28T11:33:51.326Z,76736
2017-08-28T11:34:46.561Z,74336
2017-08-28T11:35:35.553Z,73152
2017-08-28T11:36:29.603Z,72672
2017-08-28T11:37:23.796Z,72416
2017-08-28T11:38:12.823Z,70976
2017-08-28T11:39:13.823Z,71424
2017-08-28T11:40:13.973Z,73632
2017-08-28T11:41:08.145Z,74080
2017-08-28T11:42:08.124Z,72992
2017-08-28T11:43:03.241Z,67328
2017-08-28T11:44:03.367Z,62272
2017-08-28T11:44:58.340Z,57216
2017-08-28T11:45:58.485Z,59136
2017-08-28T11:46:53.448Z,62464
2017-08-28T11:47:47.573Z,65152
2017-08-28T11:48:47.730Z,65792
2017-08-28T11:49:47.983Z,65920
2017-08-28T11:50:41.860Z,14444
2017-08-28T11:51:30.969Z,57632
2017-08-28T11:52:30.959Z,59936
2017-08-28T11:53:26.145Z,64864
2017-08-28T11:54:27.118Z,66688
2017-08-28T11:55:21.327Z,65856
2017-08-28T11:56:10.311Z,65184
2017-08-28T11:56:59.357Z,63936
2017-08-28T11:57:53.570Z,64576
2017-08-28T11:58:47.544Z,66080
2017-08-28T11:59:35.680Z,68224
2017-08-28T12:00:31.026Z,15504
2017-08-28T12:01:18.766Z,68608
2017-08-28T12:02:06.962Z,67264
2017-08-28T12:02:56.042Z,14876
2017-08-28T12:03:50.043Z,68448
2017-08-28T12:04:45.183Z,63520
2017-08-28T12:05:45.250Z,67584
2017-08-28T12:06:39.345Z,67456
2017-08-28T12:07:28.353Z,67104
2017-08-28T12:08:17.623Z,61344
2017-08-28T12:09:06.641Z,62336
2017-08-28T12:09:55.689Z,65312
2017-08-28T12:10:55.796Z,62656
2017-08-28T12:11:55.775Z,53376
2017-08-28T12:12:49.908Z,53664
2017-08-28T12:13:43.999Z,55904
2017-08-28T12:14:38.064Z,58400
2017-08-28T12:15:32.149Z,60608
2017-08-28T12:16:32.243Z,61600
2017-08-28T12:17:21.199Z,15280
2017-08-28T12:18:15.342Z,58944
2017-08-28T12:19:09.457Z,56896
2017-08-28T12:19:58.511Z,15084
2017-08-28T12:20:52.586Z,60512
2017-08-28T12:21:46.637Z,63232
2017-08-28T12:22:40.764Z,63200
2017-08-28T12:23:34.689Z,59648
2017-08-28T12:24:34.869Z,57440
2017-08-28T12:25:36.024Z,55392
2017-08-28T12:26:31.081Z,56832